Time;durP1;ratioP1;P1;durP2;ratioP2;P2;SDS_P1;SDS_P2;PMS_P1;PMS_P2;Temp;Humidity;BMP_temperature;BMP_pressure;BME280_temperature;BME280_humidity;BME280_pressure;Samples;Min_cycle;Max_cycle;Signal;HPM_P1;HPM_P2
2024/03/06 00:02:20;;;;;;;0.30;0.20;;;;;;;6.96;100.00;100392.19;5096023;28;20452;-47
2024/03/06 00:04:46;;;;;;;0.30;0.20;;;;;;;6.92;100.00;100395.75;5096014;28;20924;-47
2024/03/06 00:07:13;;;;;;;0.30;0.20;;;;;;;7.03;100.00;100394.75;5096111;28;20469;-47
2024/03/06 00:09:39;;;;;;;0.30;0.20;;;;;;;6.80;100.00;100396.78;5096038;28;20572;-47
2024/03/06 00:12:06;;;;;;;0.30;0.20;;;;;;;6.93;100.00;100389.56;5095853;28;20528;-47
2024/03/06 00:14:33;;;;;;;0.30;0.20;;;;;;;7.03;100.00;100388.59;5096010;28;20471;-47
2024/03/06 00:16:59;;;;;;;0.30;0.20;;;;;;;6.99;100.00;100390.41;5095634;28;20472;-47
2024/03/06 00:19:26;;;;;;;0.30;0.20;;;;;;;7.04;100.00;100395.63;5095956;28;20467;-47
2024/03/06 00:21:52;;;;;;;0.30;0.10;;;;;;;6.84;100.00;100399.34;5095203;28;20448;-48
2024/03/06 00:24:19;;;;;;;0.30;0.20;;;;;;;6.83;100.00;100397.59;5095976;28;20464;-47
2024/03/06 00:26:47;;;;;;;0.30;0.20;;;;;;;6.75;100.00;100396.84;5095861;28;20502;-47
2024/03/06 00:29:14;;;;;;;0.30;0.20;;;;;;;6.77;100.00;100405.63;5096030;28;20450;-49
2024/03/06 00:31:45;;;;;;;0.30;0.20;;;;;;;6.48;100.00;100403.28;5095565;28;20838;-47
2024/03/06 00:34:15;;;;;;;0.30;0.20;;;;;;;6.48;100.00;100400.66;5096198;28;20448;-47
2024/03/06 00:36:55;;;;;;;0.30;0.20;;;;;;;6.44;100.00;100396.31;5019992;28;20474;-47
2024/03/06 00:39:21;;;;;;;0.30;0.20;;;;;;;6.51;100.00;100397.09;5020382;28;20563;-47
2024/03/06 00:41:48;;;;;;;0.30;0.20;;;;;;;6.20;100.00;100405.31;5032216;28;20526;-47
2024/03/06 00:44:15;;;;;;;0.30;0.20;;;;;;;6.10;100.00;100405.41;5026285;28;20539;-47
2024/03/06 00:46:41;;;;;;;0.30;0.20;;;;;;;5.98;100.00;100410.78;5033373;28;20894;-47
2024/03/06 00:49:08;;;;;;;0.30;0.20;;;;;;;6.08;100.00;100412.47;5033025;28;20447;-47
2024/03/06 00:51:36;;;;;;;0.30;0.20;;;;;;;5.98;100.00;100434.53;5031251;28;20487;-47
2024/03/06 00:54:13;;;;;;;0.30;0.20;;;;;;;5.92;100.00;100417.88;5022604;28;20478;-47
2024/03/06 00:56:40;;;;;;;0.30;0.20;;;;;;;5.86;99.98;100431.06;5032709;28;20459;-47
2024/03/06 00:59:06;;;;;;;0.30;0.20;;;;;;;5.78;99.80;100432.00;5032311;28;20461;-47
2024/03/06 01:01:33;;;;;;;0.30;0.20;;;;;;;5.73;100.00;100426.75;5032596;28;20495;-47
2024/03/06 01:04:01;;;;;;;0.30;0.10;;;;;;;5.66;99.75;100430.31;5032986;28;20523;-48
2024/03/06 01:06:28;;;;;;;0.30;0.20;;;;;;;5.85;99.58;100431.94;5033246;28;20452;-47
2024/03/06 01:08:56;;;;;;;0.30;0.20;;;;;;;5.71;100.00;100432.91;5093665;28;20472;-47
2024/03/06 01:11:24;;;;;;;0.30;0.20;;;;;;;5.61;100.00;100440.88;5094381;28;20485;-47
2024/03/06 01:13:50;;;;;;;0.30;0.20;;;;;;;5.48;100.00;100457.69;5095117;28;20532;-48
2024/03/06 01:16:17;;;;;;;0.30;0.20;;;;;;;5.38;100.00;100444.56;5095585;28;20449;-47
2024/03/06 01:18:44;;;;;;;0.30;0.20;;;;;;;5.42;100.00;100446.28;5093933;28;20471;-47
2024/03/06 01:21:10;;;;;;;0.30;0.20;;;;;;;5.39;100.00;100457.72;5095458;28;20555;-47
2024/03/06 01:23:36;;;;;;;0.30;0.10;;;;;;;5.26;100.00;100449.00;5092480;28;20858;-47
2024/03/06 01:26:03;;;;;;;0.30;0.20;;;;;;;5.23;100.00;100456.91;5095631;28;20563;-47
2024/03/06 01:28:30;;;;;;;0.30;0.20;;;;;;;5.25;100.00;100449.00;5094755;28;20476;-47
2024/03/06 01:30:58;;;;;;;0.30;0.20;;;;;;;5.26;100.00;100448.13;5095146;28;20484;-47
2024/03/06 01:33:26;;;;;;;0.30;0.20;;;;;;;5.40;100.00;100442.78;5095227;28;20481;-46
2024/03/06 01:35:52;;;;;;;0.30;0.20;;;;;;;5.35;100.00;100442.81;5073902;28;20447;-47
2024/03/06 01:38:18;;;;;;;0.30;0.20;;;;;;;5.46;100.00;100448.00;5085145;28;20974;-47
2024/03/06 01:40:45;;;;;;;0.30;0.20;;;;;;;5.26;100.00;100442.84;5085294;28;20446;-48
2024/03/06 01:43:23;;;;;;;0.30;0.20;;;;;;;5.28;100.00;100436.69;5086275;28;20535;-48
2024/03/06 01:45:51;;;;;;;0.30;0.20;;;;;;;5.28;100.00;100441.06;5095113;28;20440;-47
2024/03/06 01:48:21;;;;;;;0.30;0.20;;;;;;;5.30;100.00;100448.09;5094690;28;20505;-47
2024/03/06 01:50:47;;;;;;;0.30;0.10;;;;;;;5.42;100.00;100449.78;5094735;28;20488;-47
2024/03/06 01:53:18;;;;;;;0.30;0.20;;;;;;;5.37;100.00;100451.59;5077898;28;20451;-48
2024/03/06 01:55:45;;;;;;;0.30;0.20;;;;;;;5.14;100.00;100445.53;5094775;28;20444;-47
2024/03/06 01:58:11;;;;;;;0.30;0.20;;;;;;;5.15;100.00;100448.16;5067400;28;20481;-47
2024/03/06 02:00:38;;;;;;;0.30;0.20;;;;;;;5.27;100.00;100455.13;5094729;28;20527;-47
2024/03/06 02:03:05;;;;;;;0.30;0.20;;;;;;;5.40;100.00;100454.19;5068005;28;20445;-46
2024/03/06 02:05:32;;;;;;;0.30;0.20;;;;;;;5.47;100.00;100457.66;5093569;28;20949;-47
2024/03/06 02:07:59;;;;;;;0.30;0.20;;;;;;;5.54;100.00;100459.41;5093673;28;20475;-47
2024/03/06 02:10:27;;;;;;;0.30;0.20;;;;;;;5.35;100.00;100459.50;5093420;28;20491;-47
2024/03/06 02:12:54;;;;;;;0.30;0.20;;;;;;;5.33;100.00;100460.38;5094003;28;20527;-47
2024/03/06 02:15:21;;;;;;;0.30;0.10;;;;;;;5.38;100.00;100466.50;5093623;28;20441;-47
2024/03/06 02:17:47;;;;;;;0.30;0.10;;;;;;;5.39;100.00;100465.63;5093626;28;20555;-48
2024/03/06 02:20:15;;;;;;;0.30;0.10;;;;;;;5.47;100.00;100458.53;5094135;28;20445;-47
2024/03/06 02:22:42;;;;;;;0.30;0.20;;;;;;;5.62;100.00;100458.47;5091353;28;20445;-47
2024/03/06 02:25:09;;;;;;;0.30;0.10;;;;;;;5.75;100.00;100458.38;5094130;28;20453;-47
2024/03/06 02:27:36;;;;;;;0.30;0.20;;;;;;;5.65;100.00;100460.22;5094355;28;20464;-46
2024/03/06 02:30:03;;;;;;;0.30;0.20;;;;;;;5.65;100.00;100457.59;5094067;28;20453;-47
2024/03/06 02:32:30;;;;;;;0.30;0.20;;;;;;;5.74;100.00;100459.25;5092871;28;20480;-47
2024/03/06 02:34:57;;;;;;;0.30;0.10;;;;;;;5.71;100.00;100460.16;5087900;28;20522;-48
2024/03/06 02:37:24;;;;;;;0.30;0.20;;;;;;;5.74;100.00;100456.63;5073328;28;20515;-47
2024/03/06 02:39:51;;;;;;;0.30;0.20;;;;;;;5.67;100.00;100447.03;5080213;28;20448;-47
2024/03/06 02:42:17;;;;;;;0.30;0.20;;;;;;;5.67;100.00;100450.53;5088178;28;20450;-47
2024/03/06 02:44:43;;;;;;;0.40;0.20;;;;;;;5.73;100.00;100452.25;5087239;28;20446;-46
2024/03/06 02:47:10;;;;;;;0.30;0.10;;;;;;;5.80;100.00;100451.34;5082522;28;20501;-47
2024/03/06 02:49:36;;;;;;;0.30;0.20;;;;;;;5.69;100.00;100451.41;5092955;28;20622;-47
2024/03/06 02:52:03;;;;;;;0.30;0.10;;;;;;;5.65;100.00;100447.91;5082883;28;20573;-47
2024/03/06 02:54:30;;;;;;;0.30;0.10;;;;;;;5.74;100.00;100451.34;5090041;28;20468;-47
2024/03/06 02:56:56;;;;;;;0.30;0.20;;;;;;;5.76;100.00;100452.25;5093038;28;20876;-48
2024/03/06 02:59:23;;;;;;;0.30;0.20;;;;;;;5.71;100.00;100454.03;5092677;28;20463;-48
2024/03/06 03:01:50;;;;;;;0.30;0.10;;;;;;;5.61;100.00;100459.34;5092985;28;20502;-47
2024/03/06 03:04:17;;;;;;;0.30;0.20;;;;;;;5.47;100.00;100458.53;5092731;28;20441;-47
2024/03/06 03:06:43;;;;;;;0.30;0.20;;;;;;;5.31;100.00;100460.38;5093410;28;20860;-47
2024/03/06 03:09:11;;;;;;;0.30;0.20;;;;;;;5.25;100.00;100456.91;5093260;28;20532;-47
2024/03/06 03:11:38;;;;;;;0.30;0.20;;;;;;;5.15;100.00;100466.59;5093809;28;20485;-47
2024/03/06 03:14:04;;;;;;;0.30;0.20;;;;;;;5.05;100.00;100462.22;5093443;28;20484;-47
2024/03/06 03:16:32;;;;;;;0.30;0.13;;;;;;;5.07;100.00;100468.38;5093215;28;20444;-47
2024/03/06 03:18:58;;;;;;;0.30;0.20;;;;;;;4.91;100.00;100467.53;5092976;28;20451;-47
2024/03/06 03:21:25;;;;;;;0.30;0.10;;;;;;;4.86;100.00;100471.97;5091639;28;20441;-47
2024/03/06 03:23:51;;;;;;;0.30;0.20;;;;;;;4.77;100.00;100479.88;5091841;28;20451;-47
2024/03/06 03:26:17;;;;;;;0.30;0.20;;;;;;;4.80;100.00;100476.34;5092732;28;20444;-47
2024/03/06 03:28:44;;;;;;;0.30;0.10;;;;;;;4.83;100.00;100465.84;5092328;28;20552;-47
2024/03/06 03:31:11;;;;;;;0.30;0.10;;;;;;;4.92;100.00;100478.97;5092615;28;20493;-47
2024/03/06 03:33:41;;;;;;;0.30;0.10;;;;;;;4.96;100.00;100481.59;5095960;28;20539;-47
2024/03/06 03:36:08;;;;;;;0.30;0.20;;;;;;;4.94;100.00;100478.09;5073451;28;20442;-47
2024/03/06 03:38:38;;;;;;;0.30;0.20;;;;;;;5.04;100.00;100481.56;5085830;28;20554;-47
2024/03/06 03:41:08;;;;;;;0.30;0.10;;;;;;;5.30;100.00;100486.75;5086371;28;20513;-48
2024/03/06 03:43:35;;;;;;;0.30;0.20;;;;;;;5.29;100.00;100479.72;5091054;28;20456;-47
2024/03/06 03:46:04;;;;;;;0.30;0.10;;;;;;;5.23;100.00;100472.72;5099003;28;20872;-48
2024/03/06 03:48:31;;;;;;;0.30;0.13;;;;;;;5.02;100.00;100472.78;5099226;28;20468;-46
2024/03/06 03:50:58;;;;;;;0.30;0.20;;;;;;;4.94;100.00;100467.56;5099647;28;20485;-48
2024/03/06 03:53:24;;;;;;;0.30;0.20;;;;;;;4.85;100.00;100480.75;5078938;28;20899;-47
2024/03/06 03:55:50;;;;;;;0.30;0.20;;;;;;;4.92;100.00;100477.19;5071935;28;20447;-47
2024/03/06 03:58:17;;;;;;;0.30;0.20;;;;;;;4.91;100.00;100474.56;5100007;28;20480;-50
2024/03/06 04:00:44;;;;;;;0.30;0.20;;;;;;;5.12;100.00;100482.44;5099591;28;20444;-49
2024/03/06 04:03:11;;;;;;;0.30;0.20;;;;;;;5.23;100.00;100483.28;5099710;28;20445;-50
2024/03/06 04:05:37;;;;;;;0.30;0.10;;;;;;;4.90;100.00;100483.34;5099586;28;20506;-49
2024/03/06 04:08:06;;;;;;;0.30;0.20;;;;;;;4.91;100.00;100485.97;5099507;28;20499;-50
2024/03/06 04:10:32;;;;;;;0.30;0.20;;;;;;;5.01;100.00;100477.19;5099478;28;20461;-50
2024/03/06 04:12:59;;;;;;;0.30;0.20;;;;;;;5.21;100.00;100487.66;5099678;28;20449;-50
2024/03/06 04:15:26;;;;;;;0.30;0.20;;;;;;;5.10;100.00;100489.47;5099652;28;20448;-49
2024/03/06 04:17:53;;;;;;;0.30;0.20;;;;;;;5.07;100.00;100492.06;5099664;28;20538;-50
2024/03/06 04:20:19;;;;;;;0.30;0.10;;;;;;;5.08;100.00;100496.50;5099093;28;20460;-49
2024/03/06 04:22:47;;;;;;;0.30;0.20;;;;;;;5.12;100.00;100498.22;5096287;28;20445;-50
2024/03/06 04:25:14;;;;;;;0.87;0.87;;;;;;;5.06;100.00;100508.78;5098685;28;20461;-50
2024/03/06 04:27:40;;;;;;;0.30;0.10;;;;;;;4.99;100.00;100500.03;5098763;28;20968;-50
2024/03/06 04:30:07;;;;;;;0.30;0.13;;;;;;;5.04;100.00;100505.28;5098950;28;20448;-50
2024/03/06 04:32:34;;;;;;;0.30;0.20;;;;;;;5.06;100.00;100512.28;5099049;28;20572;-49
2024/03/06 04:35:00;;;;;;;0.30;0.20;;;;;;;4.89;100.00;100513.22;5092208;28;20449;-49
2024/03/06 04:37:29;;;;;;;0.30;0.20;;;;;;;5.16;100.00;100512.25;5079890;28;21004;-50
2024/03/06 04:39:55;;;;;;;0.30;0.20;;;;;;;4.99;100.00;100521.09;5068537;28;20453;-49
2024/03/06 04:42:22;;;;;;;0.30;0.20;;;;;;;5.11;100.00;100528.09;5085158;28;20929;-49
2024/03/06 04:44:48;;;;;;;0.30;0.20;;;;;;;5.12;100.00;100521.06;5096030;28;20445;-50
2024/03/06 04:47:15;;;;;;;0.30;0.10;;;;;;;5.05;100.00;100521.06;5074466;28;20464;-50
2024/03/06 04:49:42;;;;;;;0.30;0.20;;;;;;;4.97;100.00;100525.50;5092077;28;20480;-50
2024/03/06 04:52:09;;;;;;;0.30;0.10;;;;;;;4.91;100.00;100525.50;5084643;28;20581;-50
2024/03/06 04:54:35;;;;;;;0.30;0.20;;;;;;;5.18;100.00;100523.66;5092221;28;20484;-50
2024/03/06 04:57:02;;;;;;;0.30;0.20;;;;;;;5.25;100.00;100522.78;5096390;28;20469;-50
2024/03/06 04:59:29;;;;;;;0.30;0.10;;;;;;;5.23;99.64;100533.34;5095970;28;20456;-50
2024/03/06 05:01:55;;;;;;;0.30;0.10;;;;;;;5.17;100.00;100538.59;5096638;28;20540;-50
2024/03/06 05:04:22;;;;;;;0.30;0.20;;;;;;;5.06;100.00;100545.66;5096960;28;20995;-50
2024/03/06 05:07:06;;;;;;;0.30;0.10;;;;;;;4.92;100.00;100547.44;5096370;28;20969;-50
2024/03/06 05:09:50;;;;;;;0.30;0.20;;;;;;;4.88;100.00;100558.84;5096682;28;20444;-50
2024/03/06 05:12:34;;;;;;;0.30;0.20;;;;;;;4.68;100.00;100564.16;5096313;28;21016;-50
2024/03/06 05:15:19;;;;;;;0.30;0.10;;;;;;;4.57;100.00;100564.16;5096752;28;20448;-50
2024/03/06 05:18:03;;;;;;;0.30;0.10;;;;;;;4.46;100.00;100563.25;5096369;28;20452;-50
2024/03/06 05:20:48;;;;;;;0.30;0.17;;;;;;;4.39;99.90;100572.91;5097081;28;20455;-50
2024/03/06 05:23:32;;;;;;;0.30;0.20;;;;;;;4.32;99.73;100583.44;5097760;28;20478;-50
2024/03/06 05:26:16;;;;;;;0.30;0.10;;;;;;;4.32;100.00;100579.03;5094778;28;20525;-50
2024/03/06 05:29:00;;;;;;;0.30;0.20;;;;;;;4.47;99.93;100581.69;5094666;28;20436;-49
2024/03/06 05:31:44;;;;;;;0.20;0.10;;;;;;;4.43;99.95;100579.06;5094469;28;20553;-49
2024/03/06 05:34:28;;;;;;;0.30;0.20;;;;;;;5.01;99.33;100577.28;5094312;28;20428;-50
2024/03/06 05:37:12;;;;;;;0.30;0.10;;;;;;;4.78;98.09;100589.59;5070891;28;20447;-50
2024/03/06 05:39:57;;;;;;;0.30;0.10;;;;;;;4.56;99.45;100587.84;5063433;28;20484;-50
2024/03/06 05:42:42;;;;;;;0.30;0.20;;;;;;;4.47;99.62;100586.06;5080145;28;20468;-49
2024/03/06 05:45:26;;;;;;;0.30;0.20;;;;;;;4.31;100.00;100598.34;5094334;28;20527;-50
2024/03/06 05:48:10;;;;;;;0.30;0.20;;;;;;;4.13;100.00;100595.69;5093972;28;21029;-49
2024/03/06 05:50:54;;;;;;;0.30;0.10;;;;;;;4.31;100.00;100603.59;5094199;28;20570;-49
2024/03/06 05:53:38;;;;;;;0.30;0.20;;;;;;;4.22;100.00;100606.19;5079657;28;20433;-49
2024/03/06 05:56:22;;;;;;;0.30;0.17;;;;;;;4.21;100.00;100606.19;5094204;28;20486;-50
2024/03/06 05:59:07;;;;;;;0.30;0.10;;;;;;;4.19;100.00;100608.84;5094198;28;20480;-49
2024/03/06 06:01:34;;;;;;;0.30;0.20;;;;;;;4.05;100.00;100615.81;5094380;28;20436;-49
2024/03/06 06:04:01;;;;;;;0.23;0.20;;;;;;;4.20;100.00;100617.59;5094613;28;20539;-50
2024/03/06 06:06:33;;;;;;;0.30;0.20;;;;;;;4.24;100.00;100617.59;5093980;28;20441;-50
2024/03/06 06:08:59;;;;;;;0.30;0.10;;;;;;;4.36;100.00;100620.25;5093627;28;20536;-49
2024/03/06 06:11:25;;;;;;;0.30;0.20;;;;;;;4.49;100.00;100629.06;5093693;28;20484;-50
2024/03/06 06:13:52;;;;;;;0.30;0.10;;;;;;;4.40;100.00;100631.69;5093419;28;20817;-50
2024/03/06 06:16:18;;;;;;;0.30;0.20;;;;;;;4.47;100.00;100631.69;5093786;28;20449;-50
2024/03/06 06:18:45;;;;;;;0.30;0.10;;;;;;;4.44;100.00;100638.72;5093608;28;20507;-50
2024/03/06 06:21:11;;;;;;;0.30;0.10;;;;;;;4.41;100.00;100642.22;5093970;28;20877;-50
2024/03/06 06:23:38;;;;;;;0.30;0.10;;;;;;;4.50;100.00;100638.72;5092754;28;20444;-50
2024/03/06 06:26:05;;;;;;;0.30;0.10;;;;;;;4.52;100.00;100643.97;5094416;28;20480;-50
2024/03/06 06:28:31;;;;;;;0.30;0.10;;;;;;;4.79;100.00;100643.13;5093741;28;20468;-50
2024/03/06 06:30:58;;;;;;;0.30;0.13;;;;;;;5.09;99.63;100642.28;5093965;28;20445;-50
2024/03/06 06:33:24;;;;;;;0.30;0.10;;;;;;;5.01;100.00;100644.91;5093787;28;20535;-50
2024/03/06 06:35:51;;;;;;;0.30;0.20;;;;;;;4.95;100.00;100658.97;5072846;28;20451;-50
2024/03/06 06:38:18;;;;;;;0.23;0.10;;;;;;;4.98;100.00;100652.81;5083534;28;20548;-49
2024/03/06 06:40:44;;;;;;;0.30;0.10;;;;;;;4.93;100.00;100649.28;5083385;28;20871;-49
2024/03/06 06:43:11;;;;;;;0.30;0.20;;;;;;;5.13;100.00;100654.56;5084667;28;20464;-49
2024/03/06 06:45:37;;;;;;;0.20;0.10;;;;;;;5.26;99.77;100658.94;5093209;28;20818;-50
2024/03/06 06:48:04;;;;;;;0.30;0.20;;;;;;;5.26;99.18;100653.66;5093017;28;20469;-50
2024/03/06 06:50:33;;;;;;;4.00;3.70;;;;;;;5.50;98.46;100651.00;5092821;28;20857;-50
2024/03/06 06:53:00;;;;;;;0.27;0.20;;;;;;;5.56;97.70;100658.00;5076206;28;21005;-50
2024/03/06 06:55:26;;;;;;;0.30;0.20;;;;;;;5.11;98.61;100662.47;5092783;28;20453;-51
2024/03/06 06:57:53;;;;;;;0.30;0.20;;;;;;;5.14;98.81;100675.63;5092575;28;20576;-50
2024/03/06 07:00:22;;;;;;;0.30;0.10;;;;;;;5.12;99.24;100680.03;5092910;28;20448;-50
2024/03/06 07:02:49;;;;;;;0.30;0.10;;;;;;;5.04;99.31;100681.78;5092679;28;20445;-51
2024/03/06 07:05:16;;;;;;;0.30;0.17;;;;;;;5.29;99.45;100682.66;5092648;28;20502;-50
2024/03/06 07:07:42;;;;;;;0.30;0.20;;;;;;;5.35;98.75;100688.81;5092391;28;20834;-50
2024/03/06 07:10:09;;;;;;;0.30;0.20;;;;;;;5.20;98.68;100693.19;5093459;28;20448;-50
2024/03/06 07:12:36;;;;;;;0.30;0.20;;;;;;;5.22;99.07;100696.72;5093244;28;20896;-49
2024/03/06 07:15:03;;;;;;;0.30;0.10;;;;;;;5.24;98.79;100695.84;5093020;28;20980;-50
2024/03/06 07:17:29;;;;;;;0.30;0.20;;;;;;;5.31;98.84;100694.06;5093014;28;20468;-50
2024/03/06 07:19:56;;;;;;;0.30;0.10;;;;;;;5.31;99.52;100697.56;5093338;28;20507;-50
2024/03/06 07:22:23;;;;;;;0.30;0.20;;;;;;;5.50;99.44;100697.56;5090512;28;20544;-50
2024/03/06 07:24:49;;;;;;;0.30;0.20;;;;;;;5.56;98.64;100703.69;5093475;28;20505;-49
2024/03/06 07:27:16;;;;;;;0.30;0.20;;;;;;;5.74;97.49;100701.91;5092969;28;20465;-50
2024/03/06 07:29:42;;;;;;;0.27;0.20;;;;;;;5.86;97.73;100696.59;5093296;28;20496;-50
2024/03/06 07:32:09;;;;;;;0.77;0.77;;;;;;;5.85;97.57;100701.00;5093164;28;20492;-50
2024/03/06 07:34:36;;;;;;;0.30;0.10;;;;;;;5.82;97.83;100706.28;5092874;28;20445;-50
2024/03/06 07:37:02;;;;;;;0.30;0.20;;;;;;;6.15;97.10;100710.59;5092972;28;20511;-50
2024/03/06 07:39:32;;;;;;;0.30;0.10;;;;;;;6.16;96.04;100707.06;5078659;28;20532;-50
2024/03/06 07:41:58;;;;;;;0.30;0.10;;;;;;;6.24;97.83;100707.94;5091363;28;20493;-50
2024/03/06 07:44:25;;;;;;;0.30;0.10;;;;;;;6.31;96.49;100706.16;5085252;28;20449;-50
2024/03/06 07:46:53;;;;;;;0.30;0.20;;;;;;;6.38;97.37;100715.78;5067094;28;20556;-50
2024/03/06 07:49:21;;;;;;;0.30;0.20;;;;;;;6.54;96.88;100712.19;5092649;28;20472;-50
2024/03/06 07:51:48;;;;;;;0.30;0.20;;;;;;;6.47;96.16;100713.13;5087412;28;20485;-50
2024/03/06 07:54:15;;;;;;;2.60;2.50;;;;;;;6.61;96.68;100713.03;5081410;28;20456;-49
2024/03/06 07:56:41;;;;;;;0.30;0.20;;;;;;;6.58;96.00;100725.38;5092739;28;20544;-50
2024/03/06 07:59:08;;;;;;;0.30;0.10;;;;;;;6.78;96.44;100721.75;5078815;28;20449;-50
2024/03/06 08:01:35;;;;;;;0.30;0.20;;;;;;;6.79;95.78;100731.41;5092184;28;20530;-50
2024/03/06 08:04:02;;;;;;;0.30;0.20;;;;;;;6.87;96.16;100731.38;5092083;28;21030;-50
2024/03/06 08:06:29;;;;;;;0.30;0.17;;;;;;;7.05;95.18;100723.31;5091893;28;20945;-50
2024/03/06 08:08:55;;;;;;;0.30;0.20;;;;;;;7.15;95.40;100729.41;5091752;28;20452;-50
2024/03/06 08:11:25;;;;;;;0.30;0.20;;;;;;;7.38;94.75;100726.56;5091990;28;20531;-51
2024/03/06 08:14:01;;;;;;;0.30;0.20;;;;;;;7.28;94.59;100723.16;5091711;28;20913;-50
2024/03/06 08:16:30;;;;;;;0.30;0.20;;;;;;;7.57;93.22;100722.00;5092516;28;20510;-51
2024/03/06 08:19:00;;;;;;;0.30;0.20;;;;;;;7.37;93.70;100724.81;5078460;28;20449;-50
2024/03/06 08:21:27;;;;;;;0.30;0.13;;;;;;;7.97;92.44;100730.44;5095887;28;20497;-51
2024/03/06 08:23:54;;;;;;;0.30;0.20;;;;;;;7.45;93.30;100730.06;5087725;28;20495;-51
2024/03/06 08:26:22;;;;;;;0.30;0.20;;;;;;;7.90;93.15;100724.31;5087392;28;20473;-51
2024/03/06 08:28:49;;;;;;;0.30;0.10;;;;;;;7.50;93.97;100729.13;5095386;28;20472;-50
2024/03/06 08:31:15;;;;;;;0.30;0.20;;;;;;;7.70;93.21;100735.09;5095554;28;20513;-51
2024/03/06 08:33:43;;;;;;;0.30;0.20;;;;;;;7.72;92.33;100732.44;5095447;28;20585;-51
2024/03/06 08:36:10;;;;;;;0.30;0.20;;;;;;;7.76;92.66;100730.63;5069465;28;20443;-51
2024/03/06 08:38:36;;;;;;;0.30;0.20;;;;;;;7.85;93.43;100727.91;5081748;28;20581;-52
2024/03/06 08:41:03;;;;;;;0.30;0.20;;;;;;;8.37;91.89;100728.22;5081824;28;20875;-51
2024/03/06 08:43:29;;;;;;;0.30;0.20;;;;;;;7.88;91.93;100727.88;5087411;28;20898;-51
2024/03/06 08:45:55;;;;;;;0.30;0.20;;;;;;;8.16;90.88;100739.03;5094990;28;20452;-50
2024/03/06 08:48:22;;;;;;;0.30;0.20;;;;;;;8.26;90.82;100735.38;5095147;28;20997;-51
2024/03/06 08:50:48;;;;;;;0.30;0.20;;;;;;;8.54;90.95;100743.91;5095193;28;20819;-50
2024/03/06 08:53:16;;;;;;;0.30;0.20;;;;;;;8.55;88.44;100735.94;5080159;28;21027;-51
2024/03/06 08:55:42;;;;;;;0.30;0.20;;;;;;;8.85;88.70;100739.94;5094953;28;20456;-50
2024/03/06 08:58:08;;;;;;;0.30;0.20;;;;;;;8.74;88.15;100736.53;5094880;28;20542;-50
2024/03/06 09:00:35;;;;;;;0.30;0.20;;;;;;;8.64;88.09;100744.66;5094672;28;20445;-51
2024/03/06 09:03:01;;;;;;;0.30;0.20;;;;;;;8.70;88.40;100742.78;5095175;28;20892;-50
2024/03/06 09:05:28;;;;;;;0.30;0.20;;;;;;;8.75;87.71;100751.53;5094834;28;20455;-51
2024/03/06 09:07:57;;;;;;;0.30;0.20;;;;;;;8.94;87.03;100751.31;5094890;28;20493;-51
2024/03/06 09:10:27;;;;;;;0.30;0.20;;;;;;;9.16;86.64;100750.94;5094647;28;20926;-50
2024/03/06 09:12:54;;;;;;;0.30;0.20;;;;;;;9.11;86.56;100751.94;5094660;28;20489;-51
2024/03/06 09:15:20;;;;;;;0.30;0.20;;;;;;;8.98;87.39;100753.88;5094712;28;20448;-51
2024/03/06 09:17:47;;;;;;;0.30;0.13;;;;;;;9.15;87.50;100757.16;5094583;28;20465;-51
2024/03/06 09:20:15;;;;;;;0.30;0.20;;;;;;;9.13;87.21;100755.44;5094845;28;20461;-51
2024/03/06 09:22:42;;;;;;;0.30;0.20;;;;;;;9.31;86.85;100757.78;5093284;28;20469;-51
2024/03/06 09:25:12;;;;;;;0.30;0.20;;;;;;;9.44;86.64;100755.81;5094360;28;20498;-51
2024/03/06 09:27:38;;;;;;;0.30;0.20;;;;;;;9.80;85.71;100757.84;5094349;28;20464;-51
2024/03/06 09:30:05;;;;;;;0.30;0.20;;;;;;;9.85;85.22;100752.44;5094210;28;21024;-51
2024/03/06 09:32:32;;;;;;;0.40;0.30;;;;;;;9.86;85.75;100758.63;5093716;28;20489;-51
2024/03/06 09:34:59;;;;;;;0.30;0.20;;;;;;;9.86;84.49;100761.28;5087657;28;20455;-51
2024/03/06 09:37:27;;;;;;;0.30;0.20;;;;;;;9.76;86.12;100765.91;5074449;28;20547;-52
2024/03/06 09:39:53;;;;;;;0.30;0.20;;;;;;;10.21;85.08;100758.88;5093918;28;20488;-51
2024/03/06 09:42:20;;;;;;;0.30;0.20;;;;;;;10.35;84.45;100763.94;5089139;28;20450;-51
2024/03/06 09:44:47;;;;;;;0.30;0.20;;;;;;;10.49;84.90;100758.34;5091383;28;20526;-51
2024/03/06 09:47:18;;;;;;;0.30;0.20;;;;;;;10.85;83.61;100757.56;5094161;28;20469;-51
2024/03/06 09:49:44;;;;;;;0.30;0.20;;;;;;;10.38;84.21;100763.84;5094114;28;20444;-51
2024/03/06 09:52:11;;;;;;;0.30;0.20;;;;;;;10.47;83.87;100758.38;5082468;28;20493;-51
2024/03/06 09:54:39;;;;;;;0.30;0.20;;;;;;;10.61;84.15;100756.28;5089665;28;20487;-51
2024/03/06 09:57:06;;;;;;;0.30;0.20;;;;;;;10.68;83.57;100752.56;5094482;28;20534;-51
2024/03/06 09:59:32;;;;;;;0.30;0.20;;;;;;;10.90;83.22;100754.78;5093637;28;20468;-51
2024/03/06 10:02:02;;;;;;;0.30;0.20;;;;;;;11.16;82.61;100757.72;5093799;28;20953;-51
2024/03/06 10:04:32;;;;;;;0.30;0.20;;;;;;;11.27;81.44;100755.69;5093634;28;20445;-51
2024/03/06 10:07:00;;;;;;;0.30;0.20;;;;;;;11.67;81.23;100754.69;5093608;28;20559;-51
2024/03/06 10:09:27;;;;;;;0.30;0.20;;;;;;;11.40;80.53;100753.59;5094079;28;20869;-51
2024/03/06 10:11:56;;;;;;;0.30;0.20;;;;;;;11.33;80.39;100751.13;5093751;28;20444;-51
2024/03/06 10:14:26;;;;;;;0.30;0.20;;;;;;;11.12;82.01;100750.72;5093889;28;20459;-51
2024/03/06 10:16:59;;;;;;;0.30;0.20;;;;;;;11.39;81.23;100754.53;5093297;28;20469;-51
2024/03/06 10:19:28;;;;;;;0.30;0.20;;;;;;;11.67;80.98;100759.16;5093482;28;20452;-52
2024/03/06 10:21:56;;;;;;;0.30;0.20;;;;;;;11.57;81.04;100754.06;5090449;28;20528;-50
2024/03/06 10:24:29;;;;;;;0.30;0.20;;;;;;;12.02;80.54;100756.47;5093321;28;20459;-51
2024/03/06 10:26:58;;;;;;;0.30;0.20;;;;;;;11.77;79.15;100760.66;5093417;28;20551;-51
2024/03/06 10:29:26;;;;;;;0.30;0.20;;;;;;;12.00;79.85;100758.28;5093309;28;20492;-51
2024/03/06 10:31:55;;;;;;;0.30;0.20;;;;;;;11.88;79.36;100763.94;5093009;28;20526;-51
2024/03/06 10:34:24;;;;;;;0.30;0.20;;;;;;;12.48;78.68;100751.66;5093083;28;20452;-51
2024/03/06 10:36:54;;;;;;;0.30;0.20;;;;;;;12.24;77.45;100754.09;5065873;28;20489;-51
2024/03/06 10:39:22;;;;;;;0.30;0.20;;;;;;;12.28;78.32;100758.41;5080334;28;20449;-51
2024/03/06 10:41:54;;;;;;;0.30;0.20;;;;;;;12.41;78.33;100757.16;5091660;28;20535;-52
2024/03/06 10:44:24;;;;;;;0.30;0.20;;;;;;;12.27;77.58;100758.47;5086278;28;20540;-50
2024/03/06 10:47:00;;;;;;;0.30;0.20;;;;;;;12.37;77.45;100765.28;5078633;28;20816;-51
2024/03/06 10:49:27;;;;;;;0.30;0.20;;;;;;;12.26;76.02;100762.91;5092950;28;20451;-51
2024/03/06 10:51:58;;;;;;;0.30;0.20;;;;;;;12.32;75.62;100761.84;5085972;28;20443;-51
2024/03/06 10:54:29;;;;;;;0.30;0.20;;;;;;;12.16;76.24;100762.28;5083223;28;20457;-51
2024/03/06 10:56:56;;;;;;;0.30;0.20;;;;;;;12.32;74.79;100765.38;5092824;28;20472;-51
2024/03/06 10:59:27;;;;;;;0.30;0.20;;;;;;;12.31;74.00;100760.09;5092343;28;20514;-51
2024/03/06 11:02:00;;;;;;;0.30;0.20;;;;;;;12.32;73.71;100764.53;5092910;28;20507;-51
2024/03/06 11:04:30;;;;;;;0.30;0.20;;;;;;;12.19;74.74;100761.31;5092654;28;20815;-51
2024/03/06 11:06:59;;;;;;;0.30;0.20;;;;;;;12.22;74.43;100766.59;5092610;28;20556;-51
2024/03/06 11:09:26;;;;;;;0.30;0.20;;;;;;;11.78;74.79;100765.06;5092335;28;20457;-51
2024/03/06 11:11:55;;;;;;;0.30;0.20;;;;;;;12.14;74.52;100765.91;5092453;28;20879;-51
2024/03/06 11:14:22;;;;;;;0.30;0.20;;;;;;;12.34;73.45;100768.03;5065347;28;20489;-50
2024/03/06 11:16:58;;;;;;;0.30;0.20;;;;;;;12.75;73.36;100753.50;5092665;28;20527;-50
2024/03/06 11:19:27;;;;;;;0.40;0.30;;;;;;;13.02;71.63;100747.31;5092573;28;20493;-51
2024/03/06 11:21:53;;;;;;;0.30;0.20;;;;;;;13.36;70.34;100756.94;5088179;28;20525;-51
2024/03/06 11:24:33;;;;;;;0.30;0.20;;;;;;;13.30;69.59;100765.16;5092352;28;20447;-48
2024/03/06 11:27:05;;;;;;;0.30;0.20;;;;;;;12.94;70.54;100756.47;5092315;28;20464;-49
2024/03/06 11:30:16;;;;;;;0.30;0.20;;;;;;;12.81;71.05;100753.31;5092462;28;20909;-49
2024/03/06 11:32:58;;;;;;;0.30;0.20;;;;;;;12.65;71.48;100760.03;5092183;28;20519;-49
2024/03/06 11:35:28;;;;;;;0.30;0.20;;;;;;;12.98;70.33;100766.13;5078496;28;20486;-50